Time;durP1;ratioP1;P1;durP2;ratioP2;P2;SDS_P1;SDS_P2;PMS_P1;PMS_P2;Temp;Humidity;BMP_temperature;BMP_pressure;BME280_temperature;BME280_humidity;BME280_pressure;Samples;Min_cycle;Max_cycle;Signal;HPM_P1;HPM_P2
2023/08/22 00:02:00;;;;;;;186.68;179.18;;;;;;;29.84;37.81;102000.78;5041648;28;20068;-69
2023/08/22 00:04:25;;;;;;;183.57;176.07;;;;;;;29.81;37.84;101999.50;5044139;28;20044;-69
2023/08/22 00:06:51;;;;;;;184.30;176.40;;;;;;;29.78;37.85;102000.16;5044133;28;20036;-70
2023/08/22 00:09:17;;;;;;;183.13;175.63;;;;;;;29.76;37.75;101992.16;5047798;28;20068;-68
2023/08/22 00:11:42;;;;;;;178.82;171.52;;;;;;;29.74;37.92;101993.69;5037063;28;20060;-69
2023/08/22 00:14:08;;;;;;;180.05;172.75;;;;;;;29.71;37.94;101989.59;5037971;28;20080;-68
2023/08/22 00:16:33;;;;;;;193.10;185.32;;;;;;;29.69;37.72;101989.13;5044820;28;20040;-69
2023/08/22 00:18:58;;;;;;;185.90;177.93;;;;;;;29.67;37.77;101985.06;5044294;28;20062;-69
2023/08/22 00:21:24;;;;;;;183.68;176.18;;;;;;;29.64;37.95;101978.19;5039049;28;20102;-68
2023/08/22 00:23:49;;;;;;;185.88;178.38;;;;;;;29.62;38.05;101985.25;5042885;28;20044;-67
2023/08/22 00:26:15;;;;;;;177.45;170.15;;;;;;;29.60;38.02;101968.06;5046174;28;20517;-68
2023/08/22 00:28:40;;;;;;;180.20;172.70;;;;;;;29.57;38.01;101971.53;5047404;28;20319;-68
2023/08/22 00:31:05;;;;;;;180.05;172.65;;;;;;;29.56;37.93;101984.66;5044598;28;20033;-70
2023/08/22 00:33:31;;;;;;;187.15;179.68;;;;;;;29.53;38.06;101979.75;5045139;28;20060;-68
2023/08/22 00:35:56;;;;;;;177.80;170.60;;;;;;;29.50;38.39;101991.56;5047363;28;20072;-68
2023/08/22 00:38:22;;;;;;;181.15;173.80;;;;;;;29.49;38.08;101981.59;5046351;28;20076;-68
2023/08/22 00:40:48;;;;;;;177.02;169.90;;;;;;;29.46;37.87;101985.06;5040046;28;20087;-68
2023/08/22 00:43:13;;;;;;;179.98;172.75;;;;;;;29.43;38.06;101977.38;5042162;28;20033;-68
2023/08/22 00:45:40;;;;;;;173.63;166.50;;;;;;;29.42;38.19;101964.63;5045074;28;20037;-70
2023/08/22 00:48:06;;;;;;;175.88;168.63;;;;;;;29.39;38.23;101963.34;5042569;28;20393;-66
2023/08/22 00:50:33;;;;;;;181.20;173.80;;;;;;;29.36;38.26;101952.91;5038506;28;20753;-70
2023/08/22 00:52:59;;;;;;;180.85;173.25;;;;;;;29.34;38.33;101953.25;5042707;28;20033;-68
2023/08/22 00:55:24;;;;;;;180.98;173.65;;;;;;;29.31;38.25;101945.59;5044878;28;20037;-70
2023/08/22 00:57:50;;;;;;;178.15;170.93;;;;;;;29.29;38.38;101956.25;5046284;28;20081;-70
2023/08/22 01:00:16;;;;;;;182.20;174.75;;;;;;;29.28;38.31;101953.78;5042711;28;20056;-70
2023/08/22 01:02:41;;;;;;;180.15;172.80;;;;;;;29.25;38.16;101952.50;5037378;28;20033;-69
2023/08/22 01:05:08;;;;;;;179.02;171.68;;;;;;;29.23;38.21;101952.06;5041547;28;20120;-69
2023/08/22 01:07:40;;;;;;;174.85;167.63;;;;;;;29.22;38.29;101955.16;5036718;28;20038;-70
2023/08/22 01:10:12;;;;;;;173.82;166.77;;;;;;;29.19;38.31;101955.84;5042627;28;20086;-69
2023/08/22 01:12:51;;;;;;;176.10;168.90;;;;;;;29.16;38.35;101960.13;5041815;28;20029;-69
2023/08/22 01:15:18;;;;;;;174.93;167.73;;;;;;;29.12;38.25;101954.41;5038739;28;20053;-69
2023/08/22 01:17:43;;;;;;;173.65;166.38;;;;;;;29.10;38.43;101945.59;4999793;28;1166080;-69
2023/08/22 01:20:12;;;;;;;180.25;172.85;;;;;;;29.09;38.46;101943.97;5046400;28;20378;-68
2023/08/22 01:22:40;;;;;;;176.43;169.25;;;;;;;29.07;38.31;101946.28;5040422;28;20442;-68
2023/08/22 01:25:06;;;;;;;174.18;167.05;;;;;;;29.04;38.49;101938.59;5048178;28;20064;-68
2023/08/22 01:28:00;;;;;;;178.82;171.55;;;;;;;29.02;38.56;101951.19;5039314;28;20115;-69
2023/08/22 01:30:35;;;;;;;171.23;164.27;;;;;;;28.99;38.47;101940.75;5033578;28;20393;-69
2023/08/22 01:33:11;;;;;;;171.38;164.35;;;;;;;28.96;38.67;101941.44;5044426;28;20078;-69
2023/08/22 01:35:39;;;;;;;173.93;166.77;;;;;;;28.93;38.50;101931.81;5040915;28;20392;-70
2023/08/22 01:38:05;;;;;;;170.18;163.18;;;;;;;28.89;38.66;101928.88;5045057;28;20039;-68
2023/08/22 01:40:31;;;;;;;175.50;168.05;;;;;;;28.88;38.51;101943.94;5045853;28;20373;-69
2023/08/22 01:42:57;;;;;;;170.82;163.63;;;;;;;28.86;38.62;101937.09;5045556;28;20061;-68
2023/08/22 01:45:23;;;;;;;179.52;172.23;;;;;;;28.83;38.55;101935.00;5037481;28;20065;-69
2023/08/22 01:47:48;;;;;;;171.20;164.25;;;;;;;28.82;38.67;101930.56;5046754;28;20033;-68
2023/08/22 01:50:13;;;;;;;175.77;168.52;;;;;;;28.79;38.66;101934.84;5039089;28;20065;-68
2023/08/22 01:52:39;;;;;;;174.43;167.32;;;;;;;28.77;38.71;101928.81;5043207;28;20037;-68
2023/08/22 01:55:05;;;;;;;169.13;162.05;;;;;;;28.75;38.69;101930.31;5048303;28;20119;-68
2023/08/22 01:57:30;;;;;;;178.52;171.25;;;;;;;28.71;38.70;101930.19;5046343;28;20029;-68
2023/08/22 01:59:56;;;;;;;170.40;163.23;;;;;;;28.69;38.68;101930.50;5043768;28;20086;-69
2023/08/22 02:02:21;;;;;;;168.07;161.15;;;;;;;28.67;38.67;101929.22;5045319;28;20041;-68
2023/08/22 02:04:46;;;;;;;170.90;163.90;;;;;;;28.65;39.11;101924.00;5037669;28;20141;-69
2023/08/22 02:07:12;;;;;;;166.73;159.70;;;;;;;28.63;38.77;101917.16;5036917;28;20037;-69
2023/08/22 02:09:37;;;;;;;171.13;164.13;;;;;;;28.61;38.76;101927.78;5043326;28;20065;-70
2023/08/22 02:12:03;;;;;;;166.77;159.75;;;;;;;28.58;38.86;101922.91;5039821;28;20082;-69
2023/08/22 02:14:28;;;;;;;178.80;171.50;;;;;;;28.55;38.83;101924.41;5040572;28;20440;-69
2023/08/22 02:16:55;;;;;;;165.02;158.25;;;;;;;28.53;38.83;101915.59;5042976;28;20489;-68
2023/08/22 02:19:20;;;;;;;167.07;160.07;;;;;;;28.51;39.00;101917.06;5044755;28;20056;-68
2023/08/22 02:21:46;;;;;;;169.48;162.50;;;;;;;28.50;38.92;101915.41;5044104;28;20037;-69
2023/08/22 02:24:11;;;;;;;169.43;162.32;;;;;;;28.47;38.90;101908.56;5039547;28;20033;-68
2023/08/22 02:26:41;;;;;;;168.05;160.95;;;;;;;28.43;39.12;101908.41;5043070;28;20037;-70
2023/08/22 02:29:06;;;;;;;166.52;159.65;;;;;;;28.42;38.86;101900.41;5040729;28;20548;-69
2023/08/22 02:31:32;;;;;;;167.70;160.70;;;;;;;28.41;39.00;101901.56;5040976;28;20132;-70
2023/08/22 02:33:57;;;;;;;166.98;160.15;;;;;;;28.39;38.95;101901.09;5046318;28;20115;-69
2023/08/22 02:36:22;;;;;;;164.85;158.07;;;;;;;28.36;39.10;101907.31;5041210;28;20025;-69
2023/08/22 02:38:48;;;;;;;161.20;154.43;;;;;;;28.34;39.01;101913.19;5045066;28;20041;-69
2023/08/22 02:41:13;;;;;;;164.43;157.63;;;;;;;28.33;39.05;101917.13;5043705;28;20115;-68
2023/08/22 02:43:39;;;;;;;164.85;158.10;;;;;;;28.31;39.00;101913.06;5043661;28;20465;-68
2023/08/22 02:46:04;;;;;;;163.30;156.52;;;;;;;28.28;39.12;101914.56;5035341;28;20037;-69
2023/08/22 02:48:29;;;;;;;164.23;157.43;;;;;;;28.26;39.00;101911.28;5036915;28;20045;-69
2023/08/22 02:50:55;;;;;;;173.65;166.65;;;;;;;28.24;38.94;101910.81;5040933;28;20749;-68
2023/08/22 02:53:20;;;;;;;167.88;160.77;;;;;;;28.22;39.21;101913.09;5041766;28;20394;-68
2023/08/22 02:55:49;;;;;;;162.73;156.02;;;;;;;28.20;38.93;101912.63;5039468;28;20044;-68
2023/08/22 02:58:14;;;;;;;165.13;158.30;;;;;;;28.18;39.00;101915.75;5042130;28;20044;-68
2023/08/22 03:00:40;;;;;;;166.02;159.07;;;;;;;28.16;38.98;101922.78;5043618;28;20509;-68
2023/08/22 03:03:05;;;;;;;163.52;156.70;;;;;;;28.14;39.11;101922.28;5040193;28;20040;-69
2023/08/22 03:05:30;;;;;;;163.65;156.88;;;;;;;28.12;39.08;101913.47;5037657;28;20037;-69
2023/08/22 03:07:56;;;;;;;162.82;156.07;;;;;;;28.10;39.13;101916.59;5039245;28;20044;-70
2023/08/22 03:10:21;;;;;;;167.32;160.43;;;;;;;28.07;39.36;101908.91;5043599;28;20120;-69
2023/08/22 03:12:49;;;;;;;162.15;155.40;;;;;;;28.05;39.16;101900.13;5032360;28;20038;-69
2023/08/22 03:15:14;;;;;;;157.45;150.93;;;;;;;28.02;39.20;101918.28;5043506;28;20524;-69
2023/08/22 03:17:40;;;;;;;160.43;153.73;;;;;;;28.01;39.18;101924.97;5043458;28;20112;-69
2023/08/22 03:20:06;;;;;;;161.10;154.40;;;;;;;27.98;39.25;101920.06;5047762;28;20090;-69
2023/08/22 03:22:31;;;;;;;160.30;153.60;;;;;;;27.97;39.11;101924.00;5044678;28;20112;-70
2023/08/22 03:24:57;;;;;;;163.68;156.50;;;;;;;27.95;39.26;101915.19;5038431;28;20120;-69
2023/08/22 03:27:22;;;;;;;158.93;152.32;;;;;;;27.93;39.39;101914.72;5044220;28;20059;-69
2023/08/22 03:29:47;;;;;;;160.90;153.73;;;;;;;27.91;39.31;101917.00;5041681;28;20571;-69
2023/08/22 03:32:13;;;;;;;163.73;156.85;;;;;;;27.90;39.34;101907.06;5041666;28;20044;-70
2023/08/22 03:34:38;;;;;;;161.20;154.45;;;;;;;27.88;39.13;101909.34;5043475;28;20049;-69
2023/08/22 03:37:04;;;;;;;161.63;154.85;;;;;;;27.86;39.27;101908.84;5039475;28;20486;-69
2023/08/22 03:39:29;;;;;;;160.55;153.75;;;;;;;27.84;39.32;101905.59;5042398;28;20073;-70
2023/08/22 03:41:55;;;;;;;155.00;148.32;;;;;;;27.82;39.47;101908.72;5042100;28;20080;-68
2023/08/22 03:44:20;;;;;;;159.93;153.32;;;;;;;27.80;39.28;101901.84;5044610;28;20072;-69
2023/08/22 03:46:46;;;;;;;159.57;152.88;;;;;;;27.77;39.52;101906.09;5035765;28;20156;-69
2023/08/22 03:49:11;;;;;;;155.48;148.95;;;;;;;27.77;39.58;101906.09;5044095;28;20048;-69
2023/08/22 03:51:36;;;;;;;158.27;151.68;;;;;;;27.74;39.57;101903.16;5039837;28;20096;-68
2023/08/22 03:54:02;;;;;;;158.68;151.98;;;;;;;27.71;39.31;101901.03;5046339;28;20116;-68
2023/08/22 03:56:27;;;;;;;154.27;147.68;;;;;;;27.69;39.21;101897.78;5044545;28;20029;-70
2023/08/22 03:58:53;;;;;;;162.10;155.18;;;;;;;27.68;39.80;101907.25;5044783;28;20036;-69
2023/08/22 04:01:18;;;;;;;153.38;146.82;;;;;;;27.66;39.33;101904.00;5045946;28;20045;-70
2023/08/22 04:03:43;;;;;;;150.85;144.18;;;;;;;27.64;39.27;101898.75;5047559;28;20102;-68
2023/08/22 04:06:09;;;;;;;161.70;154.65;;;;;;;27.62;39.58;101896.34;5042606;28;20041;-70
2023/08/22 04:08:35;;;;;;;155.32;148.73;;;;;;;27.60;39.45;101903.38;5044759;28;20120;-70
2023/08/22 04:11:00;;;;;;;153.65;147.05;;;;;;;27.57;39.52;101888.19;5034520;28;20034;-69
2023/08/22 04:13:26;;;;;;;153.65;147.13;;;;;;;27.56;39.37;101885.72;5046916;28;20079;-69
2023/08/22 04:15:51;;;;;;;162.77;155.68;;;;;;;27.53;39.72;101883.63;5045443;28;20040;-69
2023/08/22 04:18:17;;;;;;;160.95;154.18;;;;;;;27.51;39.29;101886.72;5043059;28;20501;-69
2023/08/22 04:20:45;;;;;;;160.85;154.07;;;;;;;27.49;39.47;101889.00;5046732;28;20116;-69
2023/08/22 04:23:10;;;;;;;154.50;147.90;;;;;;;27.48;39.53;101889.34;5047037;28;20044;-70
2023/08/22 04:25:36;;;;;;;155.07;148.63;;;;;;;27.47;39.48;101890.47;5045313;28;20025;-70
2023/08/22 04:28:02;;;;;;;159.10;152.32;;;;;;;27.43;39.73;101889.53;5043804;28;20083;-69
2023/08/22 04:30:27;;;;;;;153.90;147.50;;;;;;;27.42;39.53;101888.72;5046856;28;20037;-69
2023/08/22 04:32:53;;;;;;;161.48;154.63;;;;;;;27.40;39.38;101888.22;5045065;28;20109;-70
2023/08/22 04:35:18;;;;;;;154.35;147.75;;;;;;;27.38;39.40;101882.19;5041550;28;20048;-68
2023/08/22 04:37:44;;;;;;;154.02;147.52;;;;;;;27.36;39.47;101893.59;5036609;28;20124;-70
2023/08/22 04:40:10;;;;;;;154.50;147.90;;;;;;;27.34;39.89;101898.69;5044476;28;20064;-69
2023/08/22 04:42:35;;;;;;;149.00;142.73;;;;;;;27.33;39.65;101899.00;5046237;28;20033;-69
2023/08/22 04:45:00;;;;;;;156.70;150.25;;;;;;;27.32;39.69;101900.97;5045050;28;20535;-69
2023/08/22 04:47:26;;;;;;;146.00;139.70;;;;;;;27.30;39.66;101889.38;5047104;28;20033;-68
2023/08/22 04:49:51;;;;;;;155.48;149.00;;;;;;;27.27;39.44;101903.09;5037352;28;20061;-69
2023/08/22 04:52:17;;;;;;;157.05;150.35;;;;;;;27.26;39.75;101895.91;5033591;28;20065;-68
2023/08/22 04:54:42;;;;;;;152.55;146.07;;;;;;;27.25;39.52;101895.09;5044422;28;20057;-70
2023/08/22 04:57:08;;;;;;;155.10;148.55;;;;;;;27.23;39.76;101902.13;5042916;28;20041;-70
2023/08/22 04:59:33;;;;;;;153.25;146.80;;;;;;;27.21;39.76;101901.63;5035338;28;20041;-70
2023/08/22 05:01:58;;;;;;;151.70;145.38;;;;;;;27.18;39.60;101897.56;5044862;28;20532;-69
2023/08/22 05:04:24;;;;;;;149.50;143.20;;;;;;;27.15;39.62;101899.00;5037307;28;20086;-69
2023/08/22 05:06:49;;;;;;;151.70;145.32;;;;;;;27.14;39.66;101900.16;5039986;28;20040;-69
2023/08/22 05:09:16;;;;;;;147.32;141.07;;;;;;;27.12;39.65;101905.19;5036975;28;20029;-68
2023/08/22 05:11:42;;;;;;;152.35;145.88;;;;;;;27.10;39.54;101904.72;5038394;28;20033;-68
2023/08/22 05:14:11;;;;;;;149.25;142.98;;;;;;;27.08;39.59;101898.66;5033574;28;20111;-68
2023/08/22 05:16:38;;;;;;;151.52;145.07;;;;;;;27.06;39.75;101898.16;5033448;28;20488;-68
2023/08/22 05:19:03;;;;;;;150.13;143.52;;;;;;;27.03;39.66;101896.06;5037584;28;20543;-70
2023/08/22 05:21:29;;;;;;;147.88;141.65;;;;;;;27.02;39.53;101894.44;5043327;28;20040;-69
2023/08/22 05:23:54;;;;;;;147.30;140.95;;;;;;;27.00;39.53;101895.91;5039154;28;20037;-69
2023/08/22 05:26:20;;;;;;;149.40;143.02;;;;;;;26.98;39.39;101890.69;5032950;28;20038;-70
2023/08/22 05:28:45;;;;;;;150.65;143.85;;;;;;;26.96;39.76;101896.56;5045409;28;20033;-69
2023/08/22 05:31:24;;;;;;;147.98;141.70;;;;;;;26.93;39.75;101888.06;5047039;28;20041;-69
2023/08/22 05:33:50;;;;;;;146.48;140.20;;;;;;;26.92;39.50;101889.22;5036991;28;20095;-70
2023/08/22 05:36:16;;;;;;;148.70;142.35;;;;;;;26.90;39.78;101888.72;5038250;28;20434;-69
2023/08/22 05:38:42;;;;;;;145.63;139.23;;;;;;;26.89;39.87;101892.66;5034914;28;20033;-70
2023/08/22 05:41:07;;;;;;;146.73;140.48;;;;;;;26.88;39.65;101907.66;5038508;28;20441;-69
2023/08/22 05:43:32;;;;;;;147.05;140.45;;;;;;;26.87;39.95;101901.28;5042810;28;20036;-69
2023/08/22 05:45:58;;;;;;;147.18;140.93;;;;;;;26.85;39.87;101900.78;5048235;28;20060;-69
2023/08/22 05:48:23;;;;;;;143.77;137.70;;;;;;;26.84;39.51;101895.56;5050736;28;20044;-68
2023/08/22 05:50:50;;;;;;;144.63;138.23;;;;;;;26.83;39.68;101897.53;5049951;28;20044;-69
2023/08/22 05:53:15;;;;;;;142.35;136.15;;;;;;;26.82;39.73;101901.44;5044113;28;20035;-72
2023/08/22 05:55:42;;;;;;;148.07;141.25;;;;;;;26.82;39.77;101908.97;5036958;28;20041;-70
2023/08/22 05:58:08;;;;;;;142.88;136.60;;;;;;;26.81;39.40;101910.88;5039326;28;20041;-71
2023/08/22 06:00:34;;;;;;;148.10;141.55;;;;;;;26.79;39.74;101907.66;5042894;28;20120;-69
2023/08/22 06:02:59;;;;;;;142.75;136.63;;;;;;;26.79;39.84;101912.34;5032932;28;20061;-67
2023/08/22 06:05:25;;;;;;;149.27;142.27;;;;;;;26.77;39.96;101902.41;5042763;28;20106;-68
2023/08/22 06:07:50;;;;;;;145.55;139.00;;;;;;;26.77;40.12;101901.63;5044329;28;20037;-69
2023/08/22 06:10:16;;;;;;;143.15;136.85;;;;;;;26.76;39.66;101897.19;5032833;28;20038;-69
2023/08/22 06:12:41;;;;;;;143.40;137.30;;;;;;;26.75;39.91;101901.94;5050618;28;20465;-69
2023/08/22 06:15:07;;;;;;;143.48;137.18;;;;;;;26.76;39.79;101908.28;5037615;28;20037;-70
2023/08/22 06:17:34;;;;;;;147.02;140.82;;;;;;;26.76;39.75;101905.50;5051076;28;20091;-70
2023/08/22 06:19:59;;;;;;;142.15;136.02;;;;;;;26.75;39.76;101904.69;5050141;28;20638;-70
2023/08/22 06:22:25;;;;;;;144.27;138.02;;;;;;;26.75;39.94;101899.16;5046093;28;20120;-69
2023/08/22 06:24:50;;;;;;;143.18;137.07;;;;;;;26.76;39.70;101911.88;5032882;28;20037;-69
2023/08/22 06:27:15;;;;;;;145.30;139.00;;;;;;;26.76;39.79;101909.13;5035496;28;20033;-70
2023/08/22 06:29:41;;;;;;;142.48;136.27;;;;;;;26.76;39.69;101914.66;5040535;28;20048;-70
2023/08/22 06:32:06;;;;;;;143.02;136.90;;;;;;;26.76;39.75;101911.88;5047860;28;20317;-70
2023/08/22 06:34:33;;;;;;;140.40;134.40;;;;;;;26.78;39.63;101919.88;5034950;28;20057;-69
2023/08/22 06:36:58;;;;;;;146.18;139.80;;;;;;;26.77;39.40;101921.81;5034414;28;20038;-71
2023/08/22 06:39:24;;;;;;;140.13;134.15;;;;;;;26.80;39.98;101930.63;5047566;28;20038;-69
2023/08/22 06:41:49;;;;;;;142.40;136.25;;;;;;;26.80;39.52;101933.41;5031636;28;20474;-72
2023/08/22 06:44:14;;;;;;;143.48;137.35;;;;;;;26.82;39.49;101933.91;5037839;28;20493;-70
2023/08/22 06:46:40;;;;;;;143.15;136.85;;;;;;;26.80;39.62;101928.69;5036896;28;20041;-70
2023/08/22 06:49:05;;;;;;;145.25;138.98;;;;;;;26.81;39.52;101938.59;5036992;28;20075;-70
2023/08/22 06:51:32;;;;;;;141.73;135.63;;;;;;;26.82;39.28;101934.72;5037814;28;20039;-70
2023/08/22 06:53:58;;;;;;;142.63;136.23;;;;;;;26.81;39.52;101932.25;5038687;28;20040;-69
2023/08/22 06:56:24;;;;;;;140.63;134.52;;;;;;;26.82;39.45;101931.13;5039597;28;20037;-70
2023/08/22 06:58:50;;;;;;;145.43;139.18;;;;;;;26.83;39.46;101932.75;5037429;28;20046;-69
2023/08/22 07:01:15;;;;;;;142.10;136.02;;;;;;;26.83;39.58;101943.84;5040039;28;20041;-69
2023/08/22 07:03:42;;;;;;;139.63;133.63;;;;;;;26.82;39.76;101939.44;5042022;28;20052;-69
2023/08/22 07:06:07;;;;;;;149.63;143.10;;;;;;;26.82;39.57;101945.81;5048064;28;20033;-70
2023/08/22 07:08:33;;;;;;;142.50;136.40;;;;;;;26.83;39.71;101952.16;5039882;28;20029;-70
2023/08/22 07:11:03;;;;;;;142.15;136.00;;;;;;;26.84;39.80;101948.22;5029865;28;20029;-70
2023/08/22 07:13:29;;;;;;;141.70;135.50;;;;;;;26.85;39.58;101949.88;5031104;28;20030;-69
2023/08/22 07:15:55;;;;;;;146.55;140.05;;;;;;;26.86;39.63;101948.72;5029498;28;20486;-70
2023/08/22 07:18:21;;;;;;;144.30;138.20;;;;;;;26.85;39.71;101956.25;5043785;28;20060;-70
2023/08/22 07:20:46;;;;;;;140.23;134.23;;;;;;;26.85;39.51;101956.25;5040946;28;20033;-70
2023/08/22 07:23:12;;;;;;;144.82;138.63;;;;;;;26.87;39.65;101956.75;5029993;28;20707;-69
2023/08/22 07:25:40;;;;;;;140.18;134.18;;;;;;;26.88;39.78;101946.47;5040917;28;20111;-69
2023/08/22 07:28:05;;;;;;;143.95;137.75;;;;;;;26.88;40.01;101943.69;5040576;28;20087;-70
2023/08/22 07:30:32;;;;;;;140.63;134.65;;;;;;;26.89;39.76;101948.09;5050707;28;20029;-70
2023/08/22 07:32:58;;;;;;;145.85;139.45;;;;;;;26.89;39.96;101950.88;5041522;28;20040;-69
2023/08/22 07:35:24;;;;;;;140.07;133.98;;;;;;;26.90;39.82;101949.72;5043496;28;20041;-70
2023/08/22 07:37:49;;;;;;;143.38;137.27;;;;;;;26.91;39.85;101945.81;5044525;28;20134;-70
2023/08/22 07:40:16;;;;;;;142.45;136.25;;;;;;;26.92;40.26;101937.16;5035720;28;20060;-70
2023/08/22 07:42:42;;;;;;;143.18;137.00;;;;;;;26.95;39.92;101944.03;5038855;28;20500;-71
2023/08/22 07:45:08;;;;;;;140.63;134.65;;;;;;;26.97;39.92;101936.19;5046408;28;20037;-70
2023/08/22 07:47:33;;;;;;;144.95;138.85;;;;;;;26.98;40.17;101944.16;5038667;28;20029;-70
2023/08/22 07:49:59;;;;;;;141.75;135.63;;;;;;;27.01;40.33;101945.47;5051602;28;20040;-70
2023/08/22 07:52:24;;;;;;;146.07;139.70;;;;;;;27.03;39.94;101951.53;5050599;28;20079;-70
2023/08/22 07:54:49;;;;;;;141.10;134.98;;;;;;;27.05;40.39;101953.97;5035342;28;20061;-70
2023/08/22 07:57:15;;;;;;;141.73;135.52;;;;;;;27.07;40.28;101958.06;5034106;28;20037;-70
2023/08/22 07:59:40;;;;;;;142.68;136.63;;;;;;;27.10;40.29;101967.69;5035175;28;20049;-70
2023/08/22 08:02:06;;;;;;;143.75;137.55;;;;;;;27.11;40.22;101970.13;5043839;28;20079;-70
2023/08/22 08:04:31;;;;;;;140.43;134.43;;;;;;;27.15;40.73;101970.28;5050106;28;20040;-70
2023/08/22 08:06:56;;;;;;;147.48;141.07;;;;;;;27.17;40.63;101970.78;5044908;28;20030;-71
2023/08/22 08:09:22;;;;;;;143.25;136.85;;;;;;;27.19;40.68;101980.44;5040027;28;20029;-70
2023/08/22 08:11:47;;;;;;;144.52;138.25;;;;;;;27.21;40.50;101970.97;5033968;28;20497;-70
2023/08/22 08:14:13;;;;;;;145.07;138.85;;;;;;;27.25;40.70;101981.09;5032375;28;20037;-69
2023/08/22 08:16:38;;;;;;;149.15;142.75;;;;;;;27.26;40.41;101979.94;5032596;28;20449;-70
2023/08/22 08:19:04;;;;;;;144.43;137.85;;;;;;;27.29;40.49;101972.94;5049756;28;20049;-70
2023/08/22 08:21:30;;;;;;;144.18;137.88;;;;;;;27.31;40.57;101973.41;5039715;28;20045;-70
2023/08/22 08:23:55;;;;;;;150.90;144.27;;;;;;;27.33;40.85;101982.25;5039478;28;20048;-68
2023/08/22 08:26:21;;;;;;;145.20;139.00;;;;;;;27.34;40.71;101979.16;5032982;28;20055;-68
2023/08/22 08:28:46;;;;;;;149.95;143.45;;;;;;;27.38;40.56;101990.41;5047824;28;20040;-70
2023/08/22 08:31:12;;;;;;;143.07;136.88;;;;;;;27.40;40.50;101982.56;5045400;28;20036;-69
2023/08/22 08:33:37;;;;;;;147.40;141.13;;;;;;;27.43;40.93;101981.09;5037509;28;20091;-69
2023/08/22 08:36:04;;;;;;;144.30;138.20;;;;;;;27.45;40.71;101985.16;5032287;28;20088;-69
2023/08/22 08:38:29;;;;;;;145.13;139.02;;;;;;;27.47;40.54;101988.44;5034308;28;20040;-69
2023/08/22 08:40:59;;;;;;;143.77;137.38;;;;;;;27.49;40.60;101980.56;5035227;28;20041;-69
2023/08/22 08:43:25;;;;;;;146.73;140.35;;;;;;;27.51;40.64;101981.06;5041645;28;20078;-69
2023/08/22 08:45:51;;;;;;;145.10;138.93;;;;;;;27.54;40.86;101979.59;5051766;28;20112;-69
2023/08/22 08:48:17;;;;;;;146.95;140.63;;;;;;;27.55;40.74;101986.78;5047777;28;20207;-68
2023/08/22 08:50:44;;;;;;;148.57;142.18;;;;;;;27.57;40.68;101990.88;5041771;28;20037;-69
2023/08/22 08:53:09;;;;;;;149.40;142.98;;;;;;;27.59;40.80;101993.31;5035713;28;20506;-69
2023/08/22 08:55:35;;;;;;;148.02;141.75;;;;;;;27.60;40.92;101995.75;5034554;28;20112;-70
2023/08/22 08:58:01;;;;;;;153.10;146.60;;;;;;;27.62;40.90;101982.38;5040766;28;20064;-70
2023/08/22 09:00:27;;;;;;;154.15;147.65;;;;;;;27.63;40.66;101983.19;5050518;28;20119;-68
2023/08/22 09:02:53;;;;;;;149.70;143.20;;;;;;;27.66;41.11;101988.06;5046913;28;20044;-70
2023/08/22 09:05:21;;;;;;;149.02;142.52;;;;;;;27.69;41.06;101997.69;5052010;28;20473;-70
2023/08/22 09:07:46;;;;;;;146.93;140.68;;;;;;;27.70;41.03;101988.25;5042649;28;20035;-70
2023/08/22 09:10:12;;;;;;;150.15;143.68;;;;;;;27.73;40.92;101976.47;5047678;28;20041;-70
2023/08/22 09:12:38;;;;;;;156.25;149.75;;;;;;;27.74;40.91;101973.34;5037597;28;20503;-69
2023/08/22 09:15:17;;;;;;;147.30;140.75;;;;;;;27.77;40.96;101974.66;5044367;28;20029;-69
2023/08/22 09:17:42;;;;;;;153.02;146.63;;;;;;;27.79;40.80;101987.06;5037193;28;20045;-69
2023/08/22 09:20:10;;;;;;;151.90;145.32;;;;;;;27.81;40.99;101983.97;5043863;28;20492;-68
2023/08/22 09:22:35;;;;;;;153.40;147.02;;;;;;;27.83;41.06;101978.94;5039177;28;20025;-69
2023/08/22 09:25:04;;;;;;;153.65;147.05;;;;;;;27.86;41.22;101977.47;5041773;28;20088;-68
2023/08/22 09:27:29;;;;;;;152.95;146.60;;;;;;;27.87;40.85;101976.31;5042730;28;20503;-70
2023/08/22 09:30:04;;;;;;;150.38;143.95;;;;;;;27.88;40.91;101973.19;5040813;28;20060;-70
2023/08/22 09:32:30;;;;;;;151.57;145.07;;;;;;;27.92;40.63;101976.13;5040167;28;20025;-70
2023/08/22 09:35:01;;;;;;;155.07;148.68;;;;;;;27.93;40.79;101978.56;5032804;28;20053;-70
2023/08/22 09:37:37;;;;;;;155.70;149.25;;;;;;;27.95;40.98;101981.03;5043508;28;20052;-70
2023/08/22 09:40:13;;;;;;;154.77;148.07;;;;;;;27.98;40.51;101986.72;5036848;28;20477;-70
2023/08/22 09:42:40;;;;;;;151.68;144.98;;;;;;;27.99;40.86;101985.56;5046110;28;20521;-70
2023/08/22 09:45:05;;;;;;;154.10;147.68;;;;;;;28.01;41.07;101979.69;5040888;28;20075;-70
2023/08/22 09:47:31;;;;;;;156.13;149.55;;;;;;;28.02;41.01;101987.72;5036545;28;20040;-70
2023/08/22 09:50:05;;;;;;;156.90;150.40;;;;;;;28.04;40.75;101985.38;5047421;28;20022;-70
2023/08/22 09:52:31;;;;;;;157.48;150.88;;;;;;;28.08;40.91;101981.97;5039893;28;20033;-70
2023/08/22 09:54:57;;;;;;;149.77;143.43;;;;;;;28.10;40.73;101988.81;5034292;28;20108;-70
2023/08/22 09:57:27;;;;;;;155.70;149.13;;;;;;;28.14;41.20;101986.19;5036527;28;20025;-70
2023/08/22 09:59:53;;;;;;;155.52;148.82;;;;;;;28.13;40.92;101984.56;5047243;28;20040;-69
2023/08/22 10:02:19;;;;;;;160.98;154.27;;;;;;;28.17;40.86;101991.06;5044246;28;20036;-69
2023/08/22 10:04:46;;;;;;;155.02;148.63;;;;;;;28.18;40.81;101990.75;5033423;28;20084;-69
2023/08/22 10:07:12;;;;;;;156.30;149.88;;;;;;;28.21;40.94;101980.94;5036540;28;20078;-70
2023/08/22 10:09:42;;;;;;;154.75;148.35;;;;;;;28.23;40.97;101979.44;5039182;28;20033;-70
2023/08/22 10:12:12;;;;;;;159.15;152.57;;;;;;;28.25;41.12;101979.94;5034274;28;20033;-70
2023/08/22 10:14:46;;;;;;;162.15;155.45;;;;;;;28.27;41.14;101997.09;5050124;28;20036;-70
2023/08/22 10:17:13;;;;;;;158.73;151.95;;;;;;;28.30;41.02;101992.84;5032817;28;20115;-70
2023/08/22 10:19:42;;;;;;;160.00;153.40;;;;;;;28.33;41.04;101985.78;5047781;28;20083;-69
2023/08/22 10:22:10;;;;;;;156.82;150.18;;;;;;;28.34;41.00;101993.78;5034059;28;20128;-70
2023/08/22 10:24:35;;;;;;;159.25;152.65;;;;;;;28.36;40.97;101985.94;5033427;28;20037;-70
2023/08/22 10:27:04;;;;;;;157.43;150.88;;;;;;;28.39;40.91;101990.81;5048949;28;20090;-71
2023/08/22 10:29:34;;;;;;;160.07;153.27;;;;;;;28.41;40.99;101977.41;5037241;28;20057;-69
2023/08/22 10:32:00;;;;;;;159.15;152.57;;;;;;;28.44;41.05;101984.25;5039773;28;20033;-69
2023/08/22 10:34:34;;;;;;;163.98;157.27;;;;;;;28.45;40.98;101978.41;5042711;28;20029;-70
2023/08/22 10:37:01;;;;;;;159.98;153.32;;;;;;;28.47;41.05;101981.63;5036864;28;20041;-69
2023/08/22 10:39:57;;;;;;;160.30;153.18;;;;;;;28.47;41.09;101975.28;5042917;28;20037;-69
2023/08/22 10:42:23;;;;;;;158.20;151.52;;;;;;;28.52;40.90;101966.75;5030528;28;20155;-69
2023/08/22 10:44:57;;;;;;;161.18;154.52;;;;;;;28.55;40.62;101981.94;5046795;28;20033;-69
2023/08/22 10:47:23;;;;;;;161.23;154.60;;;;;;;28.57;40.70;101976.84;5048603;28;20090;-70
2023/08/22 10:49:55;;;;;;;160.68;154.07;;;;;;;28.60;41.09;101976.19;5043803;28;20030;-70
2023/08/22 10:52:33;;;;;;;162.95;156.15;;;;;;;28.63;40.83;101970.78;5039664;28;20032;-70